sensor_id;sensor_type;location;lat;lon;timestamp;P1;durP1;ratioP1;P2;durP2;ratioP2
24799;SDS011;12897;50.812;4.430;2023-06-04T00:01:46;3.20;;;1.45;;
24799;SDS011;12897;50.812;4.430;2023-06-04T00:04:16;3.52;;;1.60;;
24799;SDS011;12897;50.812;4.430;2023-06-04T00:06:43;5.15;;;1.72;;
24799;SDS011;12897;50.812;4.430;2023-06-04T00:09:11;3.77;;;1.25;;
24799;SDS011;12897;50.812;4.430;2023-06-04T00:11:38;5.03;;;1.55;;
24799;SDS011;12897;50.812;4.430;2023-06-04T00:14:07;3.37;;;1.40;;
24799;SDS011;12897;50.812;4.430;2023-06-04T00:16:35;2.25;;;1.60;;
24799;SDS011;12897;50.812;4.430;2023-06-04T00:19:03;4.95;;;1.80;;
24799;SDS011;12897;50.812;4.430;2023-06-04T00:21:30;8.18;;;1.42;;
24799;SDS011;12897;50.812;4.430;2023-06-04T00:23:59;4.22;;;1.22;;
24799;SDS011;12897;50.812;4.430;2023-06-04T00:26:27;4.90;;;1.40;;
24799;SDS011;12897;50.812;4.430;2023-06-04T00:28:54;2.80;;;1.57;;
24799;SDS011;12897;50.812;4.430;2023-06-04T00:31:22;4.62;;;1.37;;
24799;SDS011;12897;50.812;4.430;2023-06-04T00:33:50;5.85;;;1.50;;
24799;SDS011;12897;50.812;4.430;2023-06-04T00:36:17;4.62;;;1.60;;
24799;SDS011;12897;50.812;4.430;2023-06-04T00:38:47;4.47;;;1.70;;
24799;SDS011;12897;50.812;4.430;2023-06-04T00:41:14;3.20;;;1.60;;
24799;SDS011;12897;50.812;4.430;2023-06-04T00:43:43;4.12;;;1.75;;
24799;SDS011;12897;50.812;4.430;2023-06-04T00:46:11;7.03;;;1.57;;
24799;SDS011;12897;50.812;4.430;2023-06-04T00:48:42;6.40;;;1.70;;
24799;SDS011;12897;50.812;4.430;2023-06-04T00:51:11;4.30;;;1.50;;
24799;SDS011;12897;50.812;4.430;2023-06-04T00:53:50;8.70;;;1.80;;
24799;SDS011;12897;50.812;4.430;2023-06-04T00:56:40;6.10;;;1.80;;
24799;SDS011;12897;50.812;4.430;2023-06-04T00:59:08;4.80;;;1.60;;
24799;SDS011;12897;50.812;4.430;2023-06-04T01:01:39;8.63;;;1.72;;
24799;SDS011;12897;50.812;4.430;2023-06-04T01:04:14;10.63;;;1.77;;
24799;SDS011;12897;50.812;4.430;2023-06-04T01:06:44;8.58;;;2.27;;
24799;SDS011;12897;50.812;4.430;2023-06-04T01:09:20;3.20;;;1.55;;
24799;SDS011;12897;50.812;4.430;2023-06-04T01:14:24;6.05;;;1.90;;
24799;SDS011;12897;50.812;4.430;2023-06-04T01:22:35;4.22;;;2.00;;
24799;SDS011;12897;50.812;4.430;2023-06-04T01:25:09;4.50;;;1.45;;
24799;SDS011;12897;50.812;4.430;2023-06-04T01:27:35;1.95;;;1.47;;
24799;SDS011;12897;50.812;4.430;2023-06-04T01:30:06;7.35;;;2.02;;
24799;SDS011;12897;50.812;4.430;2023-06-04T01:32:40;4.75;;;1.67;;
24799;SDS011;12897;50.812;4.430;2023-06-04T01:35:16;2.83;;;1.72;;
24799;SDS011;12897;50.812;4.430;2023-06-04T01:37:53;6.17;;;1.80;;
24799;SDS011;12897;50.812;4.430;2023-06-04T01:40:29;6.37;;;1.85;;
24799;SDS011;12897;50.812;4.430;2023-06-04T01:43:04;2.60;;;1.60;;
24799;SDS011;12897;50.812;4.430;2023-06-04T01:48:19;3.17;;;2.00;;
24799;SDS011;12897;50.812;4.430;2023-06-04T01:50:53;7.37;;;1.72;;
24799;SDS011;12897;50.812;4.430;2023-06-04T01:53:29;7.15;;;2.00;;
24799;SDS011;12897;50.812;4.430;2023-06-04T01:56:07;3.67;;;2.02;;
24799;SDS011;12897;50.812;4.430;2023-06-04T02:01:17;4.33;;;1.90;;
24799;SDS011;12897;50.812;4.430;2023-06-04T02:09:05;4.42;;;1.80;;
24799;SDS011;12897;50.812;4.430;2023-06-04T02:11:40;10.10;;;2.10;;
24799;SDS011;12897;50.812;4.430;2023-06-04T02:19:26;7.40;;;1.98;;
24799;SDS011;12897;50.812;4.430;2023-06-04T02:21:54;5.85;;;1.92;;
24799;SDS011;12897;50.812;4.430;2023-06-04T02:24:21;7.22;;;2.25;;
24799;SDS011;12897;50.812;4.430;2023-06-04T02:26:49;4.28;;;2.30;;
24799;SDS011;12897;50.812;4.430;2023-06-04T02:29:17;4.28;;;2.47;;
24799;SDS011;12897;50.812;4.430;2023-06-04T02:31:44;4.33;;;2.35;;
24799;SDS011;12897;50.812;4.430;2023-06-04T02:34:12;4.67;;;2.00;;
24799;SDS011;12897;50.812;4.430;2023-06-04T02:36:39;5.55;;;2.42;;
24799;SDS011;12897;50.812;4.430;2023-06-04T02:39:08;5.30;;;2.40;;
24799;SDS011;12897;50.812;4.430;2023-06-04T02:41:36;8.40;;;3.05;;
24799;SDS011;12897;50.812;4.430;2023-06-04T02:44:03;6.15;;;2.30;;
24799;SDS011;12897;50.812;4.430;2023-06-04T02:46:31;7.42;;;2.50;;
24799;SDS011;12897;50.812;4.430;2023-06-04T02:48:58;4.67;;;2.10;;
24799;SDS011;12897;50.812;4.430;2023-06-04T02:51:26;6.70;;;2.37;;
24799;SDS011;12897;50.812;4.430;2023-06-04T02:53:54;7.92;;;2.50;;
24799;SDS011;12897;50.812;4.430;2023-06-04T02:56:22;6.33;;;2.27;;
24799;SDS011;12897;50.812;4.430;2023-06-04T02:58:51;7.80;;;2.35;;
24799;SDS011;12897;50.812;4.430;2023-06-04T03:01:22;13.80;;;2.62;;
24799;SDS011;12897;50.812;4.430;2023-06-04T03:03:50;5.55;;;2.52;;
24799;SDS011;12897;50.812;4.430;2023-06-04T03:06:21;5.95;;;2.30;;
24799;SDS011;12897;50.812;4.430;2023-06-04T03:11:33;7.35;;;2.67;;
24799;SDS011;12897;50.812;4.430;2023-06-04T03:14:10;6.85;;;2.50;;
24799;SDS011;12897;50.812;4.430;2023-06-04T03:16:44;5.83;;;2.47;;
24799;SDS011;12897;50.812;4.430;2023-06-04T03:19:21;5.12;;;2.70;;
24799;SDS011;12897;50.812;4.430;2023-06-04T03:21:50;4.03;;;2.47;;
24799;SDS011;12897;50.812;4.430;2023-06-04T03:24:18;11.83;;;3.40;;
24799;SDS011;12897;50.812;4.430;2023-06-04T03:26:46;5.42;;;2.67;;
24799;SDS011;12897;50.812;4.430;2023-06-04T03:29:14;6.92;;;2.60;;
24799;SDS011;12897;50.812;4.430;2023-06-04T03:31:43;6.17;;;2.60;;
24799;SDS011;12897;50.812;4.430;2023-06-04T03:34:11;9.05;;;2.98;;
24799;SDS011;12897;50.812;4.430;2023-06-04T03:36:39;7.55;;;2.60;;
24799;SDS011;12897;50.812;4.430;2023-06-04T03:39:06;9.70;;;2.50;;
24799;SDS011;12897;50.812;4.430;2023-06-04T03:41:36;6.05;;;3.15;;
24799;SDS011;12897;50.812;4.430;2023-06-04T03:44:03;7.37;;;2.60;;
24799;SDS011;12897;50.812;4.430;2023-06-04T03:46:31;9.23;;;3.30;;
24799;SDS011;12897;50.812;4.430;2023-06-04T03:48:59;8.43;;;3.22;;
24799;SDS011;12897;50.812;4.430;2023-06-04T03:51:26;6.92;;;2.80;;
24799;SDS011;12897;50.812;4.430;2023-06-04T03:53:54;5.35;;;2.87;;
24799;SDS011;12897;50.812;4.430;2023-06-04T03:56:22;7.35;;;2.65;;
24799;SDS011;12897;50.812;4.430;2023-06-04T03:58:50;7.75;;;2.85;;
24799;SDS011;12897;50.812;4.430;2023-06-04T04:01:17;6.60;;;2.60;;
24799;SDS011;12897;50.812;4.430;2023-06-04T04:03:45;9.45;;;2.85;;
24799;SDS011;12897;50.812;4.430;2023-06-04T04:06:15;6.45;;;3.05;;
24799;SDS011;12897;50.812;4.430;2023-06-04T04:11:26;5.45;;;2.85;;
24799;SDS011;12897;50.812;4.430;2023-06-04T04:13:59;8.93;;;2.85;;
24799;SDS011;12897;50.812;4.430;2023-06-04T04:16:36;6.67;;;3.00;;
24799;SDS011;12897;50.812;4.430;2023-06-04T04:21:49;7.95;;;2.75;;
24799;SDS011;12897;50.812;4.430;2023-06-04T04:27:01;8.30;;;3.17;;
24799;SDS011;12897;50.812;4.430;2023-06-04T04:29:37;6.85;;;3.00;;
24799;SDS011;12897;50.812;4.430;2023-06-04T04:32:14;5.00;;;3.05;;
24799;SDS011;12897;50.812;4.430;2023-06-04T04:34:52;6.03;;;2.90;;
24799;SDS011;12897;50.812;4.430;2023-06-04T04:37:23;5.97;;;2.85;;
24799;SDS011;12897;50.812;4.430;2023-06-04T04:40:04;7.28;;;2.70;;
24799;SDS011;12897;50.812;4.430;2023-06-04T04:42:36;5.90;;;3.25;;
24799;SDS011;12897;50.812;4.430;2023-06-04T04:45:13;11.53;;;3.30;;
24799;SDS011;12897;50.812;4.430;2023-06-04T04:47:48;6.22;;;3.05;;
24799;SDS011;12897;50.812;4.430;2023-06-04T04:50:24;8.15;;;3.40;;
24799;SDS011;12897;50.812;4.430;2023-06-04T04:53:01;9.35;;;3.10;;
24799;SDS011;12897;50.812;4.430;2023-06-04T04:55:34;9.60;;;3.87;;
24799;SDS011;12897;50.812;4.430;2023-06-04T04:58:01;6.28;;;3.02;;
24799;SDS011;12897;50.812;4.430;2023-06-04T05:00:29;6.78;;;2.90;;
24799;SDS011;12897;50.812;4.430;2023-06-04T05:02:56;10.32;;;3.10;;
24799;SDS011;12897;50.812;4.430;2023-06-04T05:05:24;5.83;;;3.02;;
24799;SDS011;12897;50.812;4.430;2023-06-04T05:07:52;6.42;;;3.22;;
24799;SDS011;12897;50.812;4.430;2023-06-04T05:10:19;7.42;;;3.17;;
24799;SDS011;12897;50.812;4.430;2023-06-04T05:12:53;6.58;;;2.60;;
24799;SDS011;12897;50.812;4.430;2023-06-04T05:15:23;5.08;;;2.90;;
24799;SDS011;12897;50.812;4.430;2023-06-04T05:17:52;10.20;;;3.20;;
24799;SDS011;12897;50.812;4.430;2023-06-04T05:20:21;7.35;;;3.00;;
24799;SDS011;12897;50.812;4.430;2023-06-04T05:22:50;9.45;;;3.08;;
24799;SDS011;12897;50.812;4.430;2023-06-04T05:25:18;4.92;;;3.12;;
24799;SDS011;12897;50.812;4.430;2023-06-04T05:27:47;7.33;;;2.70;;
24799;SDS011;12897;50.812;4.430;2023-06-04T05:30:15;8.03;;;2.90;;
24799;SDS011;12897;50.812;4.430;2023-06-04T05:32:43;5.22;;;2.90;;
24799;SDS011;12897;50.812;4.430;2023-06-04T05:35:11;8.65;;;3.40;;
24799;SDS011;12897;50.812;4.430;2023-06-04T05:37:38;7.87;;;3.35;;
24799;SDS011;12897;50.812;4.430;2023-06-04T05:40:09;9.33;;;2.65;;
24799;SDS011;12897;50.812;4.430;2023-06-04T05:42:38;5.97;;;2.58;;
24799;SDS011;12897;50.812;4.430;2023-06-04T05:45:06;6.22;;;2.65;;
24799;SDS011;12897;50.812;4.430;2023-06-04T05:47:44;9.85;;;2.95;;
24799;SDS011;12897;50.812;4.430;2023-06-04T05:50:12;12.90;;;4.10;;
24799;SDS011;12897;50.812;4.430;2023-06-04T05:52:39;8.00;;;3.15;;
24799;SDS011;12897;50.812;4.430;2023-06-04T05:55:07;9.88;;;3.10;;
24799;SDS011;12897;50.812;4.430;2023-06-04T05:57:36;9.55;;;3.02;;
24799;SDS011;12897;50.812;4.430;2023-06-04T06:00:03;6.03;;;2.85;;
24799;SDS011;12897;50.812;4.430;2023-06-04T06:02:37;5.67;;;3.02;;
24799;SDS011;12897;50.812;4.430;2023-06-04T06:05:05;6.97;;;2.92;;
24799;SDS011;12897;50.812;4.430;2023-06-04T06:07:35;4.95;;;2.85;;
24799;SDS011;12897;50.812;4.430;2023-06-04T06:10:03;9.53;;;3.47;;
24799;SDS011;12897;50.812;4.430;2023-06-04T06:12:32;6.30;;;3.10;;
24799;SDS011;12897;50.812;4.430;2023-06-04T06:14:59;7.05;;;2.83;;
24799;SDS011;12897;50.812;4.430;2023-06-04T06:17:27;7.40;;;3.08;;
24799;SDS011;12897;50.812;4.430;2023-06-04T06:19:54;5.50;;;3.20;;
24799;SDS011;12897;50.812;4.430;2023-06-04T06:22:22;6.80;;;2.75;;
24799;SDS011;12897;50.812;4.430;2023-06-04T06:24:50;8.60;;;2.85;;
24799;SDS011;12897;50.812;4.430;2023-06-04T06:27:17;13.00;;;3.10;;
24799;SDS011;12897;50.812;4.430;2023-06-04T06:29:45;5.15;;;2.80;;
24799;SDS011;12897;50.812;4.430;2023-06-04T06:32:12;6.72;;;3.00;;
24799;SDS011;12897;50.812;4.430;2023-06-04T06:37:29;7.90;;;3.25;;
24799;SDS011;12897;50.812;4.430;2023-06-04T06:39:56;7.50;;;2.85;;
24799;SDS011;12897;50.812;4.430;2023-06-04T06:42:24;8.90;;;2.80;;
24799;SDS011;12897;50.812;4.430;2023-06-04T06:44:53;9.18;;;2.92;;
24799;SDS011;12897;50.812;4.430;2023-06-04T06:47:22;7.05;;;3.25;;
24799;SDS011;12897;50.812;4.430;2023-06-04T06:49:51;7.45;;;3.33;;
24799;SDS011;12897;50.812;4.430;2023-06-04T06:52:18;7.65;;;3.10;;
24799;SDS011;12897;50.812;4.430;2023-06-04T06:54:47;4.85;;;2.62;;
24799;SDS011;12897;50.812;4.430;2023-06-04T06:57:15;4.12;;;2.55;;
24799;SDS011;12897;50.812;4.430;2023-06-04T06:59:42;4.50;;;2.95;;
24799;SDS011;12897;50.812;4.430;2023-06-04T07:02:11;5.23;;;2.43;;
24799;SDS011;12897;50.812;4.430;2023-06-04T07:04:39;7.33;;;2.83;;
24799;SDS011;12897;50.812;4.430;2023-06-04T07:07:08;6.20;;;2.58;;
24799;SDS011;12897;50.812;4.430;2023-06-04T07:09:36;8.80;;;2.87;;
24799;SDS011;12897;50.812;4.430;2023-06-04T07:12:05;5.03;;;2.50;;
24799;SDS011;12897;50.812;4.430;2023-06-04T07:14:33;6.95;;;2.80;;
24799;SDS011;12897;50.812;4.430;2023-06-04T07:17:01;7.78;;;2.75;;
24799;SDS011;12897;50.812;4.430;2023-06-04T07:19:29;14.58;;;2.52;;
24799;SDS011;12897;50.812;4.430;2023-06-04T07:21:56;5.62;;;2.33;;
24799;SDS011;12897;50.812;4.430;2023-06-04T07:24:25;9.83;;;2.52;;
24799;SDS011;12897;50.812;4.430;2023-06-04T07:26:52;5.08;;;2.90;;
24799;SDS011;12897;50.812;4.430;2023-06-04T07:29:22;5.35;;;2.60;;
24799;SDS011;12897;50.812;4.430;2023-06-04T07:31:49;10.70;;;2.90;;
24799;SDS011;12897;50.812;4.430;2023-06-04T07:34:16;5.30;;;2.58;;
24799;SDS011;12897;50.812;4.430;2023-06-04T07:36:44;7.28;;;2.75;;
24799;SDS011;12897;50.812;4.430;2023-06-04T07:39:11;4.42;;;2.30;;
24799;SDS011;12897;50.812;4.430;2023-06-04T07:41:39;6.50;;;2.80;;
24799;SDS011;12897;50.812;4.430;2023-06-04T07:44:07;4.87;;;2.55;;
24799;SDS011;12897;50.812;4.430;2023-06-04T07:46:43;4.75;;;2.20;;
24799;SDS011;12897;50.812;4.430;2023-06-04T07:49:10;5.12;;;1.92;;
24799;SDS011;12897;50.812;4.430;2023-06-04T07:51:39;4.83;;;2.00;;
24799;SDS011;12897;50.812;4.430;2023-06-04T07:54:07;4.85;;;2.02;;
24799;SDS011;12897;50.812;4.430;2023-06-04T07:56:34;3.25;;;2.08;;
24799;SDS011;12897;50.812;4.430;2023-06-04T07:59:02;7.00;;;2.20;;
24799;SDS011;12897;50.812;4.430;2023-06-04T08:01:31;4.28;;;1.82;;
24799;SDS011;12897;50.812;4.430;2023-06-04T08:03:58;3.85;;;1.75;;
24799;SDS011;12897;50.812;4.430;2023-06-04T08:06:26;4.08;;;2.17;;
24799;SDS011;12897;50.812;4.430;2023-06-04T08:08:55;5.33;;;2.10;;
24799;SDS011;12897;50.812;4.430;2023-06-04T08:11:23;6.53;;;2.17;;
24799;SDS011;12897;50.812;4.430;2023-06-04T08:13:50;4.92;;;2.10;;
24799;SDS011;12897;50.812;4.430;2023-06-04T08:16:18;8.05;;;2.27;;
24799;SDS011;12897;50.812;4.430;2023-06-04T08:18:45;6.15;;;1.77;;
24799;SDS011;12897;50.812;4.430;2023-06-04T08:21:13;4.65;;;2.00;;
24799;SDS011;12897;50.812;4.430;2023-06-04T08:23:42;4.92;;;2.02;;
24799;SDS011;12897;50.812;4.430;2023-06-04T08:26:10;3.15;;;2.02;;
24799;SDS011;12897;50.812;4.430;2023-06-04T08:28:38;5.47;;;2.62;;
24799;SDS011;12897;50.812;4.430;2023-06-04T08:31:05;4.83;;;2.08;;
24799;SDS011;12897;50.812;4.430;2023-06-04T08:33:33;4.67;;;1.75;;
24799;SDS011;12897;50.812;4.430;2023-06-04T08:36:00;3.67;;;2.02;;
24799;SDS011;12897;50.812;4.430;2023-06-04T08:38:28;6.37;;;2.10;;
24799;SDS011;12897;50.812;4.430;2023-06-04T08:40:56;10.70;;;2.05;;
24799;SDS011;12897;50.812;4.430;2023-06-04T08:43:26;8.35;;;2.22;;
24799;SDS011;12897;50.812;4.430;2023-06-04T08:45:58;7.28;;;2.10;;
24799;SDS011;12897;50.812;4.430;2023-06-04T08:48:30;5.75;;;1.80;;
24799;SDS011;12897;50.812;4.430;2023-06-04T08:51:01;3.05;;;1.85;;
24799;SDS011;12897;50.812;4.430;2023-06-04T08:53:31;4.92;;;2.15;;
24799;SDS011;12897;50.812;4.430;2023-06-04T08:55:59;9.18;;;2.02;;
24799;SDS011;12897;50.812;4.430;2023-06-04T08:58:29;5.12;;;2.05;;
24799;SDS011;12897;50.812;4.430;2023-06-04T09:00:59;4.10;;;1.90;;
24799;SDS011;12897;50.812;4.430;2023-06-04T09:03:29;4.77;;;1.80;;
24799;SDS011;12897;50.812;4.430;2023-06-04T09:06:01;6.97;;;3.20;;
24799;SDS011;12897;50.812;4.430;2023-06-04T09:13:54;3.42;;;1.57;;
24799;SDS011;12897;50.812;4.430;2023-06-04T09:16:26;4.33;;;2.00;;
24799;SDS011;12897;50.812;4.430;2023-06-04T09:18:55;6.95;;;1.90;;
24799;SDS011;12897;50.812;4.430;2023-06-04T09:21:24;11.17;;;1.90;;
24799;SDS011;12897;50.812;4.430;2023-06-04T09:23:52;7.28;;;2.27;;
24799;SDS011;12897;50.812;4.430;2023-06-04T09:26:20;3.33;;;1.75;;
24799;SDS011;12897;50.812;4.430;2023-06-04T09:28:48;6.17;;;1.67;;
24799;SDS011;12897;50.812;4.430;2023-06-04T09:31:19;6.22;;;2.33;;
24799;SDS011;12897;50.812;4.430;2023-06-04T09:33:50;8.15;;;1.92;;
24799;SDS011;12897;50.812;4.430;2023-06-04T09:36:17;7.00;;;2.10;;
24799;SDS011;12897;50.812;4.430;2023-06-04T09:38:45;3.67;;;1.60;;
24799;SDS011;12897;50.812;4.430;2023-06-04T09:41:15;6.47;;;1.92;;
24799;SDS011;12897;50.812;4.430;2023-06-04T09:43:44;6.58;;;1.90;;
24799;SDS011;12897;50.812;4.430;2023-06-04T09:46:13;5.97;;;1.80;;
24799;SDS011;12897;50.812;4.430;2023-06-04T09:48:42;7.65;;;1.95;;
24799;SDS011;12897;50.812;4.430;2023-06-04T09:51:15;7.72;;;2.30;;
24799;SDS011;12897;50.812;4.430;2023-06-04T09:53:54;4.83;;;1.90;;
24799;SDS011;12897;50.812;4.430;2023-06-04T09:56:24;6.05;;;1.50;;
24799;SDS011;12897;50.812;4.430;2023-06-04T10:01:22;8.45;;;2.00;;
24799;SDS011;12897;50.812;4.430;2023-06-04T10:03:52;10.40;;;2.10;;
24799;SDS011;12897;50.812;4.430;2023-06-04T10:06:22;5.00;;;1.82;;
24799;SDS011;12897;50.812;4.430;2023-06-04T10:08:51;10.50;;;2.25;;
24799;SDS011;12897;50.812;4.430;2023-06-04T10:11:26;12.25;;;2.92;;
24799;SDS011;12897;50.812;4.430;2023-06-04T10:13:58;9.40;;;1.95;;
24799;SDS011;12897;50.812;4.430;2023-06-04T10:16:27;6.70;;;1.82;;
24799;SDS011;12897;50.812;4.430;2023-06-04T10:21:26;7.15;;;2.05;;
24799;SDS011;12897;50.812;4.430;2023-06-04T10:23:56;4.20;;;2.65;;
24799;SDS011;12897;50.812;4.430;2023-06-04T10:26:24;4.67;;;1.85;;
24799;SDS011;12897;50.812;4.430;2023-06-04T10:28:52;4.95;;;2.45;;
24799;SDS011;12897;50.812;4.430;2023-06-04T10:31:22;3.25;;;1.80;;
24799;SDS011;12897;50.812;4.430;2023-06-04T10:33:55;2.65;;;1.95;;
24799;SDS011;12897;50.812;4.430;2023-06-04T10:36:23;2.75;;;1.77;;
24799;SDS011;12897;50.812;4.430;2023-06-04T10:38:52;3.70;;;2.45;;
24799;SDS011;12897;50.812;4.430;2023-06-04T10:41:21;5.67;;;2.25;;
24799;SDS011;12897;50.812;4.430;2023-06-04T10:43:50;4.58;;;1.67;;
24799;SDS011;12897;50.812;4.430;2023-06-04T10:46:19;4.28;;;2.10;;
24799;SDS011;12897;50.812;4.430;2023-06-04T10:48:50;2.42;;;1.62;;
24799;SDS011;12897;50.812;4.430;2023-06-04T10:51:33;3.12;;;1.67;;
24799;SDS011;12897;50.812;4.430;2023-06-04T10:54:01;5.22;;;1.70;;
24799;SDS011;12897;50.812;4.430;2023-06-04T10:56:30;3.30;;;1.98;;
24799;SDS011;12897;50.812;4.430;2023-06-04T11:01:45;4.08;;;1.62;;
24799;SDS011;12897;50.812;4.430;2023-06-04T11:04:23;7.67;;;2.10;;
24799;SDS011;12897;50.812;4.430;2023-06-04T11:07:03;4.37;;;2.10;;
24799;SDS011;12897;50.812;4.430;2023-06-04T11:09:47;5.87;;;1.67;;
24799;SDS011;12897;50.812;4.430;2023-06-04T11:12:16;5.60;;;2.40;;
24799;SDS011;12897;50.812;4.430;2023-06-04T11:14:56;4.95;;;2.10;;
24799;SDS011;12897;50.812;4.430;2023-06-04T11:17:25;3.62;;;1.42;;
24799;SDS011;12897;50.812;4.430;2023-06-04T11:19:52;5.95;;;1.75;;
24799;SDS011;12897;50.812;4.430;2023-06-04T11:22:21;7.80;;;1.90;;
24799;SDS011;12897;50.812;4.430;2023-06-04T11:27:35;3.92;;;1.40;;
24799;SDS011;12897;50.812;4.430;2023-06-04T11:30:06;4.40;;;1.87;;
24799;SDS011;12897;50.812;4.430;2023-06-04T11:32:37;4.65;;;1.80;;
24799;SDS011;12897;50.812;4.430;2023-06-04T11:35:06;4.25;;;1.80;;
24799;SDS011;12897;50.812;4.430;2023-06-04T11:40:14;5.20;;;2.20;;
24799;SDS011;12897;50.812;4.430;2023-06-04T11:42:43;8.10;;;2.12;;
24799;SDS011;12897;50.812;4.430;2023-06-04T11:45:15;5.63;;;1.73;;
24799;SDS011;12897;50.812;4.430;2023-06-04T11:47:45;5.62;;;1.90;;
24799;SDS011;12897;50.812;4.430;2023-06-04T11:52:41;5.50;;;1.60;;
24799;SDS011;12897;50.812;4.430;2023-06-04T11:55:10;5.00;;;1.85;;
24799;SDS011;12897;50.812;4.430;2023-06-04T11:57:49;4.77;;;1.73;;
24799;SDS011;12897;50.812;4.430;2023-06-04T12:00:17;4.08;;;2.22;;
24799;SDS011;12897;50.812;4.430;2023-06-04T12:02:53;5.12;;;1.70;;
24799;SDS011;12897;50.812;4.430;2023-06-04T12:05:23;5.92;;;1.80;;
24799;SDS011;12897;50.812;4.430;2023-06-04T12:08:06;4.05;;;1.70;;
24799;SDS011;12897;50.812;4.430;2023-06-04T12:10:38;3.70;;;1.77;;
24799;SDS011;12897;50.812;4.430;2023-06-04T12:13:07;5.20;;;1.60;;
24799;SDS011;12897;50.812;4.430;2023-06-04T12:15:35;3.22;;;1.80;;
24799;SDS011;12897;50.812;4.430;2023-06-04T12:18:04;3.77;;;1.82;;
24799;SDS011;12897;50.812;4.430;2023-06-04T12:20:38;2.52;;;1.50;;
24799;SDS011;12897;50.812;4.430;2023-06-04T12:23:04;6.42;;;1.35;;
24799;SDS011;12897;50.812;4.430;2023-06-04T12:25:33;4.58;;;1.60;;
24799;SDS011;12897;50.812;4.430;2023-06-04T12:28:03;6.10;;;1.92;;
24799;SDS011;12897;50.812;4.430;2023-06-04T12:30:34;5.05;;;2.27;;
24799;SDS011;12897;50.812;4.430;2023-06-04T12:33:03;3.42;;;1.72;;
24799;SDS011;12897;50.812;4.430;2023-06-04T12:35:32;3.85;;;1.82;;
24799;SDS011;12897;50.812;4.430;2023-06-04T12:38:06;3.90;;;1.70;;
24799;SDS011;12897;50.812;4.430;2023-06-04T12:40:31;5.15;;;1.67;;
24799;SDS011;12897;50.812;4.430;2023-06-04T12:42:58;5.70;;;1.60;;
24799;SDS011;12897;50.812;4.430;2023-06-04T12:45:27;2.10;;;1.90;;
24799;SDS011;12897;50.812;4.430;2023-06-04T12:47:55;8.30;;;2.00;;
24799;SDS011;12897;50.812;4.430;2023-06-04T12:50:24;4.72;;;1.95;;
24799;SDS011;12897;50.812;4.430;2023-06-04T12:52:51;7.70;;;1.80;;
24799;SDS011;12897;50.812;4.430;2023-06-04T12:55:19;4.72;;;1.70;;
24799;SDS011;12897;50.812;4.430;2023-06-04T12:57:46;3.25;;;1.50;;
24799;SDS011;12897;50.812;4.430;2023-06-04T13:00:14;3.58;;;1.67;;
24799;SDS011;12897;50.812;4.430;2023-06-04T13:02:42;8.40;;;1.77;;
24799;SDS011;12897;50.812;4.430;2023-06-04T13:05:10;5.35;;;2.25;;
24799;SDS011;12897;50.812;4.430;2023-06-04T13:07:37;3.58;;;2.00;;
24799;SDS011;12897;50.812;4.430;2023-06-04T13:10:11;7.05;;;2.25;;
24799;SDS011;12897;50.812;4.430;2023-06-04T13:15:12;4.50;;;1.80;;
24799;SDS011;12897;50.812;4.430;2023-06-04T13:17:39;9.55;;;1.92;;
24799;SDS011;12897;50.812;4.430;2023-06-04T13:20:07;5.25;;;1.65;;
24799;SDS011;12897;50.812;4.430;2023-06-04T13:22:35;8.73;;;1.95;;
24799;SDS011;12897;50.812;4.430;2023-06-04T13:25:03;3.52;;;1.65;;
24799;SDS011;12897;50.812;4.430;2023-06-04T13:27:31;7.40;;;1.90;;
24799;SDS011;12897;50.812;4.430;2023-06-04T13:29:58;2.75;;;1.65;;
24799;SDS011;12897;50.812;4.430;2023-06-04T13:32:27;10.93;;;2.27;;
24799;SDS011;12897;50.812;4.430;2023-06-04T13:34:54;9.20;;;2.20;;
24799;SDS011;12897;50.812;4.430;2023-06-04T13:37:22;3.65;;;2.20;;
24799;SDS011;12897;50.812;4.430;2023-06-04T13:39:51;2.58;;;1.50;;
24799;SDS011;12897;50.812;4.430;2023-06-04T13:42:19;4.50;;;1.87;;
24799;SDS011;12897;50.812;4.430;2023-06-04T13:44:47;8.78;;;2.00;;
24799;SDS011;12897;50.812;4.430;2023-06-04T13:47:16;4.45;;;1.72;;
24799;SDS011;12897;50.812;4.430;2023-06-04T13:49:44;5.37;;;2.00;;
24799;SDS011;12897;50.812;4.430;2023-06-04T13:52:11;9.75;;;2.10;;
24799;SDS011;12897;50.812;4.430;2023-06-04T13:54:40;7.45;;;1.75;;
24799;SDS011;12897;50.812;4.430;2023-06-04T13:57:07;2.67;;;1.70;;
24799;SDS011;12897;50.812;4.430;2023-06-04T13:59:38;4.78;;;1.80;;
24799;SDS011;12897;50.812;4.430;2023-06-04T14:02:08;5.00;;;1.70;;
24799;SDS011;12897;50.812;4.430;2023-06-04T14:07:04;4.90;;;1.60;;
24799;SDS011;12897;50.812;4.430;2023-06-04T14:09:36;5.20;;;2.30;;
24799;SDS011;12897;50.812;4.430;2023-06-04T14:12:04;3.72;;;1.82;;
24799;SDS011;12897;50.812;4.430;2023-06-04T14:14:33;6.33;;;1.90;;
24799;SDS011;12897;50.812;4.430;2023-06-04T14:17:05;2.42;;;1.45;;
24799;SDS011;12897;50.812;4.430;2023-06-04T14:19:33;2.95;;;1.52;;
24799;SDS011;12897;50.812;4.430;2023-06-04T14:22:01;2.90;;;1.65;;
24799;SDS011;12897;50.812;4.430;2023-06-04T14:24:29;2.58;;;1.60;;
24799;SDS011;12897;50.812;4.430;2023-06-04T14:26:56;3.37;;;1.87;;
24799;SDS011;12897;50.812;4.430;2023-06-04T14:29:24;5.53;;;2.22;;
24799;SDS011;12897;50.812;4.430;2023-06-04T14:31:51;6.28;;;1.70;;
24799;SDS011;12897;50.812;4.430;2023-06-04T14:34:19;4.33;;;2.20;;
24799;SDS011;12897;50.812;4.430;2023-06-04T14:36:47;3.87;;;1.75;;
24799;SDS011;12897;50.812;4.430;2023-06-04T14:39:15;5.40;;;1.75;;
24799;SDS011;12897;50.812;4.430;2023-06-04T14:41:43;3.37;;;1.67;;
24799;SDS011;12897;50.812;4.430;2023-06-04T14:44:11;4.28;;;2.02;;
24799;SDS011;12897;50.812;4.430;2023-06-04T14:46:39;4.47;;;1.92;;
24799;SDS011;12897;50.812;4.430;2023-06-04T14:49:07;4.97;;;1.92;;
24799;SDS011;12897;50.812;4.430;2023-06-04T14:51:34;1.80;;;1.62;;
24799;SDS011;12897;50.812;4.430;2023-06-04T14:56:37;5.65;;;1.70;;
24799;SDS011;12897;50.812;4.430;2023-06-04T14:59:06;3.12;;;1.60;;
24799;SDS011;12897;50.812;4.430;2023-06-04T15:01:39;3.45;;;1.87;;
24799;SDS011;12897;50.812;4.430;2023-06-04T15:04:06;6.05;;;2.02;;
24799;SDS011;12897;50.812;4.430;2023-06-04T15:06:34;3.02;;;1.60;;
24799;SDS011;12897;50.812;4.430;2023-06-04T15:09:02;4.47;;;1.77;;
24799;SDS011;12897;50.812;4.430;2023-06-04T15:11:30;3.05;;;1.60;;
24799;SDS011;12897;50.812;4.430;2023-06-04T15:13:59;4.72;;;1.87;;
24799;SDS011;12897;50.812;4.430;2023-06-04T15:19:13;5.55;;;1.77;;
24799;SDS011;12897;50.812;4.430;2023-06-04T15:21:41;4.80;;;1.80;;
24799;SDS011;12897;50.812;4.430;2023-06-04T15:24:09;2.72;;;1.52;;
24799;SDS011;12897;50.812;4.430;2023-06-04T15:26:38;7.53;;;1.60;;
24799;SDS011;12897;50.812;4.430;2023-06-04T15:29:06;8.65;;;1.90;;
24799;SDS011;12897;50.812;4.430;2023-06-04T15:31:33;5.20;;;1.67;;
24799;SDS011;12897;50.812;4.430;2023-06-04T15:36:48;3.60;;;1.62;;
24799;SDS011;12897;50.812;4.430;2023-06-04T15:39:15;2.55;;;1.75;;
24799;SDS011;12897;50.812;4.430;2023-06-04T15:41:43;3.25;;;1.65;;
24799;SDS011;12897;50.812;4.430;2023-06-04T15:44:12;7.47;;;2.02;;
24799;SDS011;12897;50.812;4.430;2023-06-04T15:46:40;4.30;;;2.05;;
24799;SDS011;12897;50.812;4.430;2023-06-04T15:49:07;3.77;;;1.65;;
24799;SDS011;12897;50.812;4.430;2023-06-04T15:51:35;4.90;;;2.10;;
24799;SDS011;12897;50.812;4.430;2023-06-04T15:54:03;3.87;;;2.00;;
24799;SDS011;12897;50.812;4.430;2023-06-04T15:56:34;5.92;;;1.60;;
24799;SDS011;12897;50.812;4.430;2023-06-04T15:59:02;3.45;;;1.77;;
24799;SDS011;12897;50.812;4.430;2023-06-04T16:01:31;3.95;;;1.92;;
24799;SDS011;12897;50.812;4.430;2023-06-04T16:03:59;4.55;;;1.72;;
24799;SDS011;12897;50.812;4.430;2023-06-04T16:06:26;3.37;;;1.57;;
24799;SDS011;12897;50.812;4.430;2023-06-04T16:08:54;2.80;;;1.60;;
24799;SDS011;12897;50.812;4.430;2023-06-04T16:11:21;2.40;;;1.45;;
24799;SDS011;12897;50.812;4.430;2023-06-04T16:13:49;2.95;;;1.62;;